createdAt,value
2023-03-27T00:02:21.586Z,11.84
2023-03-27T00:04:51.611Z,11.81
2023-03-27T00:07:20.998Z,11.81
2023-03-27T00:09:55.768Z,11.79
2023-03-27T00:12:24.484Z,11.75
2023-03-27T00:14:56.847Z,11.69
2023-03-27T00:20:23.236Z,11.60
2023-03-27T00:26:15.155Z,11.54
2023-03-27T00:32:09.448Z,11.46
2023-03-27T00:34:41.730Z,11.43
2023-03-27T00:37:14.575Z,11.39
2023-03-27T00:39:50.162Z,11.41
2023-03-27T00:42:31.120Z,11.38
2023-03-27T00:45:00.852Z,11.35
2023-03-27T00:47:34.355Z,11.33
2023-03-27T01:47:39.146Z,10.75
2023-03-27T01:50:21.093Z,10.76
2023-03-27T01:52:55.042Z,10.78
2023-03-27T01:55:30.891Z,10.74
2023-03-27T01:58:03.291Z,10.76
2023-03-27T02:37:06.903Z,10.29
2023-03-27T02:39:44.470Z,10.26
2023-03-27T02:42:19.329Z,10.21
2023-03-27T02:44:52.363Z,10.13
2023-03-27T02:47:25.972Z,10.01
2023-03-27T02:50:02.423Z,9.91
2023-03-27T02:52:43.524Z,9.80
2023-03-27T02:55:17.548Z,9.77
2023-03-27T02:57:51.785Z,9.74
2023-03-27T04:21:16.739Z,9.02
2023-03-27T04:23:48.774Z,9.11
2023-03-27T04:26:18.211Z,9.16
2023-03-27T04:28:50.553Z,9.17
2023-03-27T04:31:21.487Z,9.16
2023-03-27T04:33:52.642Z,9.13
2023-03-27T04:40:14.937Z,8.87
2023-03-27T04:42:45.190Z,8.82
2023-03-27T04:45:20.502Z,8.81
2023-03-27T04:47:49.894Z,8.80
2023-03-27T04:50:24.988Z,8.78
2023-03-27T04:52:58.985Z,8.79
2023-03-27T04:55:38.077Z,8.80
2023-03-27T04:58:08.413Z,8.83
2023-03-27T05:00:36.764Z,8.80
2023-03-27T05:03:06.171Z,8.77
2023-03-27T05:05:36.903Z,8.68
2023-03-27T05:08:06.706Z,8.63
2023-03-27T05:10:37.486Z,8.63
2023-03-27T05:13:06.949Z,8.63
2023-03-27T05:15:36.364Z,8.65
2023-03-27T05:18:06.373Z,8.68
2023-03-27T05:20:35.883Z,8.71
2023-03-27T05:23:04.525Z,8.72
2023-03-27T05:25:34.643Z,8.71
2023-03-27T05:28:07.798Z,8.67
2023-03-27T05:30:36.754Z,8.67
2023-03-27T05:33:06.726Z,8.65
2023-03-27T05:35:38.133Z,8.69
2023-03-27T05:38:07.640Z,8.73
2023-03-27T05:40:37.454Z,8.76
2023-03-27T05:43:12.268Z,8.80
2023-03-27T05:45:41.755Z,8.84
2023-03-27T05:48:13.213Z,8.87
2023-03-27T05:50:44.347Z,8.91
2023-03-27T05:53:17.812Z,8.89
2023-03-27T05:55:49.317Z,8.88
2023-03-27T05:58:43.315Z,8.86
2023-03-27T06:01:14.686Z,8.85
2023-03-27T06:03:44.549Z,8.83
2023-03-27T06:06:23.661Z,8.79
2023-03-27T06:08:56.240Z,8.71
2023-03-27T06:11:28.521Z,8.66
2023-03-27T06:13:58.914Z,8.63
2023-03-27T06:16:28.235Z,8.61
2023-03-27T06:18:57.884Z,8.60
2023-03-27T06:21:30.730Z,8.57
2023-03-27T06:24:11.332Z,8.57
2023-03-27T06:26:41.508Z,8.60
2023-03-27T06:29:13.940Z,8.63
2023-03-27T06:31:44.285Z,8.67
2023-03-27T06:34:16.293Z,8.71
2023-03-27T06:36:44.764Z,8.75
2023-03-27T06:39:14.835Z,8.77
2023-03-27T06:41:45.594Z,8.80
2023-03-27T06:44:15.794Z,8.83
2023-03-27T06:46:45.956Z,8.86
2023-03-27T06:49:24.023Z,8.85
2023-03-27T06:52:01.111Z,8.84
2023-03-27T06:54:30.981Z,8.81
2023-03-27T07:00:29.079Z,8.96
2023-03-27T07:09:27.470Z,9.30
2023-03-27T07:11:58.613Z,9.42
2023-03-27T07:14:48.912Z,9.48
2023-03-27T07:17:48.761Z,9.53
2023-03-27T07:20:19.643Z,9.62
2023-03-27T07:28:51.367Z,9.94
2023-03-27T07:31:51.045Z,10.01
2023-03-27T07:34:57.406Z,10.07
2023-03-27T07:43:25.863Z,10.17
2023-03-27T07:46:07.684Z,10.23
2023-03-27T07:51:52.162Z,10.37
2023-03-27T07:57:23.803Z,10.55
2023-03-27T08:00:09.753Z,10.65
2023-03-27T08:03:22.725Z,10.76
2023-03-27T08:23:23.523Z,11.52
2023-03-27T08:29:04.905Z,11.65
2023-03-27T08:35:38.910Z,11.81
2023-03-27T08:41:53.025Z,12.05
2023-03-27T09:10:32.381Z,12.83
2023-03-27T09:20:16.764Z,12.94
2023-03-27T09:29:02.229Z,13.07
2023-03-27T09:31:34.965Z,13.14
2023-03-27T09:37:05.967Z,13.25
2023-03-27T09:39:56.594Z,13.28
2023-03-27T09:42:31.318Z,13.36
2023-03-27T09:51:01.630Z,13.69
2023-03-27T09:53:39.345Z,13.74
2023-03-27T09:56:16.527Z,13.80
2023-03-27T09:58:49.394Z,13.87
2023-03-27T10:01:20.602Z,13.93
2023-03-27T10:03:53.593Z,14.04
2023-03-27T10:06:30.606Z,14.11
2023-03-27T10:09:01.584Z,14.20
2023-03-27T10:11:35.709Z,14.25
2023-03-27T10:14:17.874Z,14.30
2023-03-27T10:16:48.877Z,14.38
2023-03-27T10:19:30.820Z,14.47
2023-03-27T10:22:05.634Z,14.59
2023-03-27T10:24:51.256Z,14.73
2023-03-27T10:27:40.509Z,14.86
2023-03-27T10:33:15.843Z,15.26
2023-03-27T10:35:46.393Z,15.41
2023-03-27T10:41:05.886Z,15.61
2023-03-27T10:43:43.296Z,15.75
2023-03-27T10:46:17.415Z,15.87
2023-03-27T10:48:54.799Z,16.04
2023-03-27T10:51:45.544Z,16.11
2023-03-27T10:54:31.842Z,16.14
2023-03-27T10:57:06.404Z,16.18
2023-03-27T10:59:48.064Z,16.17
2023-03-27T11:02:21.050Z,16.22
2023-03-27T11:05:10.664Z,16.14
2023-03-27T11:07:58.366Z,16.13
2023-03-27T11:10:33.592Z,16.11
2023-03-27T11:13:08.020Z,16.14
2023-03-27T11:15:42.460Z,16.18
2023-03-27T11:18:17.391Z,16.22
2023-03-27T11:20:50.975Z,16.23
2023-03-27T11:23:28.036Z,16.25
2023-03-27T11:26:00.315Z,16.25
2023-03-27T11:28:39.953Z,16.29
2023-03-27T11:31:38.908Z,16.36
2023-03-27T11:37:19.334Z,16.45
2023-03-27T11:40:21.402Z,16.49
2023-03-27T11:46:12.957Z,16.59
2023-03-27T11:52:43.342Z,16.73
2023-03-27T11:55:25.851Z,16.81
2023-03-27T11:58:17.073Z,16.91
2023-03-27T12:00:58.254Z,16.94
2023-03-27T12:03:53.145Z,16.99
2023-03-27T12:06:27.252Z,17.06
2023-03-27T12:09:22.276Z,17.13
2023-03-27T12:11:59.504Z,17.24
2023-03-27T12:14:51.627Z,17.32
2023-03-27T12:17:39.943Z,17.44
2023-03-27T13:26:43.100Z,19.62
2023-03-27T13:29:19.032Z,19.98
2023-03-27T13:32:06.351Z,20.07
2023-03-27T13:40:28.143Z,20.58
2023-03-27T13:54:13.265Z,21.05
2023-03-27T13:56:58.378Z,21.09
2023-03-27T14:00:04.215Z,21.19
2023-03-27T14:03:15.110Z,21.41
2023-03-27T14:06:10.210Z,21.56
2023-03-27T14:08:46.823Z,21.74
2023-03-27T14:17:09.602Z,21.96
2023-03-27T14:20:22.515Z,22.30
2023-03-27T14:23:02.325Z,22.43
2023-03-27T14:28:34.455Z,22.42
2023-03-27T14:31:09.665Z,22.32
2023-03-27T14:33:51.629Z,22.22
2023-03-27T14:36:35.879Z,22.25
2023-03-27T14:39:12.989Z,22.50
2023-03-27T14:41:47.767Z,22.58
2023-03-27T14:44:19.187Z,22.72
2023-03-27T14:47:16.868Z,23.02
2023-03-27T14:53:31.322Z,23.20
2023-03-27T15:02:50.801Z,22.73
2023-03-27T15:18:20.853Z,22.28
2023-03-27T15:21:01.366Z,22.62
2023-03-27T16:06:01.836Z,24.65
2023-03-27T16:08:34.514Z,24.84
2023-03-27T18:14:31.324Z,17.40
2023-03-27T18:17:04.636Z,17.31
2023-03-27T19:05:48.197Z,15.93
2023-03-27T21:02:37.798Z,14.04
2023-03-27T21:05:12.999Z,14.03
2023-03-27T21:07:52.881Z,14.05
